sensor_id;sensor_type;location;lat;lon;timestamp;pressure;altitude;pressure_sealevel;temperature;humidity
79331;BME280;68797;49.782;19.054;2023-08-30T00:01:16;96173.50;;;16.54;100.00
79331;BME280;68797;49.782;19.054;2023-08-30T00:03:46;96174.03;;;16.47;100.00
79331;BME280;68797;49.782;19.054;2023-08-30T00:06:13;96175.88;;;16.46;100.00
79331;BME280;68797;49.782;19.054;2023-08-30T00:08:46;96152.63;;;16.10;100.00
79331;BME280;68797;49.782;19.054;2023-08-30T00:11:14;96180.28;;;16.35;100.00
79331;BME280;68797;49.782;19.054;2023-08-30T00:13:41;96160.97;;;16.18;100.00
79331;BME280;68797;49.782;19.054;2023-08-30T00:16:10;96154.22;;;16.13;100.00
79331;BME280;68797;49.782;19.054;2023-08-30T00:18:39;96182.84;;;16.36;100.00
79331;BME280;68797;49.782;19.054;2023-08-30T00:21:06;96180.59;;;16.43;100.00
79331;BME280;68797;49.782;19.054;2023-08-30T00:23:33;96148.31;;;16.20;100.00
79331;BME280;68797;49.782;19.054;2023-08-30T00:26:00;96168.72;;;16.34;100.00
79331;BME280;68797;49.782;19.054;2023-08-30T00:28:27;96179.63;;;16.44;100.00
79331;BME280;68797;49.782;19.054;2023-08-30T00:34:33;96156.38;;;16.44;100.00
79331;BME280;68797;49.782;19.054;2023-08-30T00:37:00;96135.56;;;16.24;100.00
79331;BME280;68797;49.782;19.054;2023-08-30T00:39:28;96161.13;;;16.41;100.00
79331;BME280;68797;49.782;19.054;2023-08-30T00:41:56;96159.69;;;16.48;100.00
79331;BME280;68797;49.782;19.054;2023-08-30T00:44:23;96163.44;;;16.45;100.00
79331;BME280;68797;49.782;19.054;2023-08-30T00:46:53;96165.81;;;16.37;100.00
79331;BME280;68797;49.782;19.054;2023-08-30T00:49:21;96164.53;;;16.43;100.00
79331;BME280;68797;49.782;19.054;2023-08-30T00:51:49;96162.41;;;16.35;100.00
79331;BME280;68797;49.782;19.054;2023-08-30T00:54:16;96122.75;;;16.04;100.00
79331;BME280;68797;49.782;19.054;2023-08-30T00:56:44;96144.78;;;16.20;100.00
79331;BME280;68797;49.782;19.054;2023-08-30T00:59:14;96162.41;;;16.35;100.00
79331;BME280;68797;49.782;19.054;2023-08-30T01:01:41;96142.97;;;16.20;100.00
79331;BME280;68797;49.782;19.054;2023-08-30T01:04:08;96133.22;;;16.19;100.00
79331;BME280;68797;49.782;19.054;2023-08-30T01:06:36;96139.56;;;16.18;100.00
79331;BME280;68797;49.782;19.054;2023-08-30T01:09:06;96127.56;;;16.11;100.00
79331;BME280;68797;49.782;19.054;2023-08-30T01:11:46;96149.38;;;16.31;100.00
79331;BME280;68797;49.782;19.054;2023-08-30T01:14:16;96154.38;;;16.35;100.00
79331;BME280;68797;49.782;19.054;2023-08-30T01:16:50;96147.44;;;16.33;100.00
79331;BME280;68797;49.782;19.054;2023-08-30T01:22:25;96150.41;;;16.28;100.00
79331;BME280;68797;49.782;19.054;2023-08-30T01:25:09;96142.97;;;16.20;100.00
79331;BME280;68797;49.782;19.054;2023-08-30T01:27:47;96107.97;;;16.11;100.00
79331;BME280;68797;49.782;19.054;2023-08-30T01:30:16;96125.53;;;16.02;100.00
79331;BME280;68797;49.782;19.054;2023-08-30T01:32:45;96118.38;;;16.03;100.00
79331;BME280;68797;49.782;19.054;2023-08-30T01:35:13;96124.72;;;15.89;100.00
79331;BME280;68797;49.782;19.054;2023-08-30T01:37:47;96131.97;;;16.00;100.00
79331;BME280;68797;49.782;19.054;2023-08-30T01:40:15;96144.78;;;16.07;100.00
79331;BME280;68797;49.782;19.054;2023-08-30T01:42:46;96125.97;;;15.96;100.00
79331;BME280;68797;49.782;19.054;2023-08-30T01:45:15;96164.88;;;16.25;100.00
79331;BME280;68797;49.782;19.054;2023-08-30T01:47:44;96152.28;;;16.15;100.00
79331;BME280;68797;49.782;19.054;2023-08-30T01:50:15;96175.41;;;16.16;100.00
79331;BME280;68797;49.782;19.054;2023-08-30T01:52:45;96154.75;;;16.05;100.00
79331;BME280;68797;49.782;19.054;2023-08-30T01:55:15;96152.94;;;15.93;100.00
79331;BME280;68797;49.782;19.054;2023-08-30T01:57:44;96156.06;;;15.87;100.00
79331;BME280;68797;49.782;19.054;2023-08-30T02:00:14;96144.41;;;15.88;100.00
79331;BME280;68797;49.782;19.054;2023-08-30T02:02:48;96150.94;;;15.96;100.00
79331;BME280;68797;49.782;19.054;2023-08-30T02:05:16;96166.53;;;16.03;100.00
79331;BME280;68797;49.782;19.054;2023-08-30T02:10:24;96155.94;;;16.01;100.00
79331;BME280;68797;49.782;19.054;2023-08-30T02:12:54;96156.28;;;15.96;100.00
79331;BME280;68797;49.782;19.054;2023-08-30T02:15:25;96153.25;;;16.01;100.00
79331;BME280;68797;49.782;19.054;2023-08-30T02:17:55;96179.69;;;16.18;100.00
79331;BME280;68797;49.782;19.054;2023-08-30T02:20:23;96172.94;;;16.13;100.00
79331;BME280;68797;49.782;19.054;2023-08-30T02:22:51;96139.16;;;15.99;100.00
79331;BME280;68797;49.782;19.054;2023-08-30T02:25:19;96162.88;;;16.04;100.00
79331;BME280;68797;49.782;19.054;2023-08-30T02:27:53;96139.91;;;15.88;100.00
79331;BME280;68797;49.782;19.054;2023-08-30T02:30:19;96162.78;;;16.05;100.00
79331;BME280;68797;49.782;19.054;2023-08-30T02:32:46;96135.53;;;15.87;100.00
79331;BME280;68797;49.782;19.054;2023-08-30T02:35:12;96171.00;;;16.15;100.00
79331;BME280;68797;49.782;19.054;2023-08-30T02:37:39;96160.75;;;16.09;100.00
79331;BME280;68797;49.782;19.054;2023-08-30T02:40:08;96134.19;;;16.06;100.00
79331;BME280;68797;49.782;19.054;2023-08-30T02:42:36;96136.13;;;16.04;100.00
79331;BME280;68797;49.782;19.054;2023-08-30T02:45:04;96161.38;;;16.12;100.00
79331;BME280;68797;49.782;19.054;2023-08-30T02:47:31;96128.88;;;15.93;100.00
79331;BME280;68797;49.782;19.054;2023-08-30T02:50:00;96133.56;;;16.02;100.00
79331;BME280;68797;49.782;19.054;2023-08-30T02:52:27;96143.94;;;16.07;100.00
79331;BME280;68797;49.782;19.054;2023-08-30T02:54:54;96139.25;;;15.85;100.00
79331;BME280;68797;49.782;19.054;2023-08-30T02:57:22;96109.22;;;15.68;100.00
79331;BME280;68797;49.782;19.054;2023-08-30T02:59:52;96117.22;;;15.81;100.00
79331;BME280;68797;49.782;19.054;2023-08-30T03:02:19;96136.78;;;15.94;100.00
79331;BME280;68797;49.782;19.054;2023-08-30T03:04:45;96131.78;;;15.90;100.00
79331;BME280;68797;49.782;19.054;2023-08-30T03:07:14;96115.75;;;15.77;100.00
79331;BME280;68797;49.782;19.054;2023-08-30T03:09:42;96149.41;;;15.92;100.00
79331;BME280;68797;49.782;19.054;2023-08-30T03:12:10;96150.28;;;15.93;100.00
79331;BME280;68797;49.782;19.054;2023-08-30T03:14:37;96151.97;;;15.94;100.00
79331;BME280;68797;49.782;19.054;2023-08-30T03:17:04;96148.69;;;15.78;100.00
79331;BME280;68797;49.782;19.054;2023-08-30T03:19:33;96119.03;;;15.55;100.00
79331;BME280;68797;49.782;19.054;2023-08-30T03:21:59;96157.34;;;15.68;100.00
79331;BME280;68797;49.782;19.054;2023-08-30T03:24:27;96149.31;;;15.56;100.00
79331;BME280;68797;49.782;19.054;2023-08-30T03:26:54;96157.97;;;15.59;100.00
79331;BME280;68797;49.782;19.054;2023-08-30T03:29:21;96159.28;;;15.66;100.00
79331;BME280;68797;49.782;19.054;2023-08-30T03:31:48;96153.31;;;15.63;100.00
79331;BME280;68797;49.782;19.054;2023-08-30T03:34:15;96152.53;;;15.61;100.00
79331;BME280;68797;49.782;19.054;2023-08-30T03:36:43;96167.53;;;15.76;100.00
79331;BME280;68797;49.782;19.054;2023-08-30T03:39:12;96161.31;;;15.63;100.00
79331;BME280;68797;49.782;19.054;2023-08-30T03:41:41;96172.53;;;15.81;100.00
79331;BME280;68797;49.782;19.054;2023-08-30T03:44:08;96144.50;;;15.61;100.00
79331;BME280;68797;49.782;19.054;2023-08-30T03:46:35;96146.94;;;15.38;100.00
79331;BME280;68797;49.782;19.054;2023-08-30T03:49:04;96176.44;;;15.50;100.00
79331;BME280;68797;49.782;19.054;2023-08-30T03:51:32;96156.56;;;15.41;100.00
79331;BME280;68797;49.782;19.054;2023-08-30T03:53:59;96175.97;;;15.70;100.00
79331;BME280;68797;49.782;19.054;2023-08-30T03:56:27;96157.88;;;15.61;100.00
79331;BME280;68797;49.782;19.054;2023-08-30T03:58:54;96163.06;;;15.50;100.00
79331;BME280;68797;49.782;19.054;2023-08-30T04:01:21;96153.00;;;15.40;100.00
79331;BME280;68797;49.782;19.054;2023-08-30T04:03:51;96162.22;;;15.49;100.00
79331;BME280;68797;49.782;19.054;2023-08-30T04:06:18;96163.53;;;15.56;100.00
79331;BME280;68797;49.782;19.054;2023-08-30T04:08:48;96155.69;;;15.40;100.00
79331;BME280;68797;49.782;19.054;2023-08-30T04:11:15;96172.50;;;15.55;100.00
79331;BME280;68797;49.782;19.054;2023-08-30T04:13:43;96166.69;;;15.63;100.00
79331;BME280;68797;49.782;19.054;2023-08-30T04:16:10;96166.88;;;15.60;100.00
79331;BME280;68797;49.782;19.054;2023-08-30T04:18:37;96161.38;;;15.49;100.00
79331;BME280;68797;49.782;19.054;2023-08-30T04:21:04;96160.97;;;15.42;100.00
79331;BME280;68797;49.782;19.054;2023-08-30T04:23:34;96113.75;;;15.16;100.00
79331;BME280;68797;49.782;19.054;2023-08-30T04:26:03;96162.66;;;15.30;100.00
79331;BME280;68797;49.782;19.054;2023-08-30T04:28:31;96166.59;;;15.37;100.00
79331;BME280;68797;49.782;19.054;2023-08-30T04:30:59;96156.00;;;15.23;100.00
79331;BME280;68797;49.782;19.054;2023-08-30T04:33:26;96169.84;;;15.43;100.00
79331;BME280;68797;49.782;19.054;2023-08-30T04:35:56;96176.88;;;15.44;100.00
79331;BME280;68797;49.782;19.054;2023-08-30T04:38:23;96178.09;;;15.52;100.00
79331;BME280;68797;49.782;19.054;2023-08-30T04:40:59;96171.84;;;15.52;100.00
79331;BME280;68797;49.782;19.054;2023-08-30T04:43:31;96148.97;;;15.35;100.00
79331;BME280;68797;49.782;19.054;2023-08-30T04:46:00;96129.69;;;15.17;100.00
79331;BME280;68797;49.782;19.054;2023-08-30T04:48:26;96152.03;;;15.16;100.00
79331;BME280;68797;49.782;19.054;2023-08-30T04:51:03;96174.84;;;15.34;100.00
79331;BME280;68797;49.782;19.054;2023-08-30T04:53:33;96181.28;;;15.45;100.00
79331;BME280;68797;49.782;19.054;2023-08-30T04:56:00;96183.31;;;15.41;100.00
79331;BME280;68797;49.782;19.054;2023-08-30T04:58:29;96161.25;;;15.25;100.00
79331;BME280;68797;49.782;19.054;2023-08-30T05:01:08;96166.81;;;15.34;100.00
79331;BME280;68797;49.782;19.054;2023-08-30T05:03:37;96177.97;;;15.41;100.00
79331;BME280;68797;49.782;19.054;2023-08-30T05:06:04;96181.03;;;15.35;100.00
79331;BME280;68797;49.782;19.054;2023-08-30T05:08:32;96176.44;;;15.37;100.00
79331;BME280;68797;49.782;19.054;2023-08-30T05:10:59;96147.13;;;15.23;100.00
79331;BME280;68797;49.782;19.054;2023-08-30T05:13:29;96184.56;;;15.48;100.00
79331;BME280;68797;49.782;19.054;2023-08-30T05:15:56;96170.97;;;15.38;100.00
79331;BME280;68797;49.782;19.054;2023-08-30T05:18:23;96185.75;;;15.44;100.00
79331;BME280;68797;49.782;19.054;2023-08-30T05:20:51;96184.78;;;15.45;100.00
79331;BME280;68797;49.782;19.054;2023-08-30T05:23:20;96163.59;;;15.29;100.00
79331;BME280;68797;49.782;19.054;2023-08-30T05:25:51;96179.75;;;15.40;100.00
79331;BME280;68797;49.782;19.054;2023-08-30T05:28:19;96193.22;;;15.39;100.00
79331;BME280;68797;49.782;19.054;2023-08-30T05:30:48;96178.25;;;15.36;100.00
79331;BME280;68797;49.782;19.054;2023-08-30T05:33:36;96166.19;;;15.31;100.00
79331;BME280;68797;49.782;19.054;2023-08-30T05:36:20;96164.03;;;15.36;100.00
79331;BME280;68797;49.782;19.054;2023-08-30T05:39:17;96176.13;;;15.42;100.00
79331;BME280;68797;49.782;19.054;2023-08-30T05:41:48;96187.75;;;15.40;100.00
79331;BME280;68797;49.782;19.054;2023-08-30T05:44:15;96187.38;;;15.47;100.00
79331;BME280;68797;49.782;19.054;2023-08-30T05:46:44;96179.31;;;15.34;100.00
79331;BME280;68797;49.782;19.054;2023-08-30T05:49:13;96179.84;;;15.39;100.00
79331;BME280;68797;49.782;19.054;2023-08-30T06:22:01;96204.19;;;15.61;100.00
79331;BME280;68797;49.782;19.054;2023-08-30T08:41:50;96270.25;;;15.86;100.00
79331;BME280;68797;49.782;19.054;2023-08-30T08:57:28;96283.19;;;15.80;100.00
79331;BME280;68797;49.782;19.054;2023-08-30T09:00:37;96279.88;;;15.89;100.00
79331;BME280;68797;49.782;19.054;2023-08-30T09:42:11;96283.94;;;16.07;100.00
79331;BME280;68797;49.782;19.054;2023-08-30T09:45:42;96281.47;;;16.17;100.00
79331;BME280;68797;49.782;19.054;2023-08-30T09:49:27;96285.78;;;16.45;100.00
79331;BME280;68797;49.782;19.054;2023-08-30T09:52:56;96240.28;;;16.32;100.00
79331;BME280;68797;49.782;19.054;2023-08-30T10:00:09;96264.13;;;16.35;98.98
79331;BME280;68797;49.782;19.054;2023-08-30T10:11:08;96291.88;;;16.09;100.00
79331;BME280;68797;49.782;19.054;2023-08-30T10:15:07;96289.44;;;16.18;100.00
79331;BME280;68797;49.782;19.054;2023-08-30T10:22:43;96269.28;;;16.00;100.00
79331;BME280;68797;49.782;19.054;2023-08-30T10:30:35;96280.84;;;16.26;100.00
79331;BME280;68797;49.782;19.054;2023-08-30T10:34:36;96289.09;;;16.23;100.00
79331;BME280;68797;49.782;19.054;2023-08-30T10:39:49;96236.22;;;15.76;100.00
79331;BME280;68797;49.782;19.054;2023-08-30T10:51:41;96258.69;;;15.86;100.00
79331;BME280;68797;49.782;19.054;2023-08-30T10:55:03;96280.97;;;15.99;100.00
79331;BME280;68797;49.782;19.054;2023-08-30T11:09:47;96295.47;;;15.82;100.00
79331;BME280;68797;49.782;19.054;2023-08-30T11:12:36;96263.53;;;15.54;100.00
79331;BME280;68797;49.782;19.054;2023-08-30T11:15:35;96294.16;;;15.62;100.00
79331;BME280;68797;49.782;19.054;2023-08-30T11:18:39;96291.72;;;15.72;100.00
79331;BME280;68797;49.782;19.054;2023-08-30T11:29:42;96269.34;;;15.60;100.00
79331;BME280;68797;49.782;19.054;2023-08-30T11:33:03;96294.19;;;15.48;100.00
79331;BME280;68797;49.782;19.054;2023-08-30T11:36:28;96293.44;;;15.46;100.00
79331;BME280;68797;49.782;19.054;2023-08-30T11:44:11;96264.75;;;15.35;100.00
79331;BME280;68797;49.782;19.054;2023-08-30T11:56:00;96302.84;;;15.52;100.00
79331;BME280;68797;49.782;19.054;2023-08-30T11:59:17;96315.66;;;15.61;100.00
79331;BME280;68797;49.782;19.054;2023-08-30T12:07:29;96327.88;;;15.51;100.00
79331;BME280;68797;49.782;19.054;2023-08-30T12:11:53;96266.03;;;15.30;100.00
79331;BME280;68797;49.782;19.054;2023-08-30T12:14:55;96273.63;;;15.36;100.00
79331;BME280;68797;49.782;19.054;2023-08-30T12:18:31;96267.53;;;15.34;100.00
79331;BME280;68797;49.782;19.054;2023-08-30T12:21:55;96298.75;;;15.60;100.00
79331;BME280;68797;49.782;19.054;2023-08-30T12:26:31;96257.22;;;15.55;100.00
79331;BME280;68797;49.782;19.054;2023-08-30T12:29:26;96283.28;;;15.78;100.00
79331;BME280;68797;49.782;19.054;2023-08-30T12:41:45;96304.59;;;16.05;100.00
79331;BME280;68797;49.782;19.054;2023-08-30T12:46:39;96266.16;;;15.81;100.00
79331;BME280;68797;49.782;19.054;2023-08-30T12:53:56;96319.91;;;16.16;100.00
79331;BME280;68797;49.782;19.054;2023-08-30T12:58:32;96323.16;;;16.21;100.00
79331;BME280;68797;49.782;19.054;2023-08-30T13:18:27;96321.03;;;15.74;100.00
79331;BME280;68797;49.782;19.054;2023-08-30T13:32:43;96283.50;;;15.75;100.00
79331;BME280;68797;49.782;19.054;2023-08-30T13:36:13;96304.69;;;15.91;100.00
79331;BME280;68797;49.782;19.054;2023-08-30T13:43:05;96318.59;;;15.96;100.00
79331;BME280;68797;49.782;19.054;2023-08-30T13:46:52;96324.06;;;15.94;100.00
79331;BME280;68797;49.782;19.054;2023-08-30T13:53:50;96306.41;;;15.52;100.00
79331;BME280;68797;49.782;19.054;2023-08-30T13:57:30;96307.34;;;15.51;100.00
79331;BME280;68797;49.782;19.054;2023-08-30T14:25:09;96303.31;;;15.58;100.00
79331;BME280;68797;49.782;19.054;2023-08-30T14:32:52;96322.81;;;15.60;100.00
79331;BME280;68797;49.782;19.054;2023-08-30T14:35:21;96322.75;;;15.48;100.00
79331;BME280;68797;49.782;19.054;2023-08-30T14:42:33;96323.97;;;15.56;100.00
79331;BME280;68797;49.782;19.054;2023-08-30T14:45:30;96310.69;;;15.55;100.00
79331;BME280;68797;49.782;19.054;2023-08-30T14:48:12;96342.25;;;15.77;100.00
79331;BME280;68797;49.782;19.054;2023-08-30T14:50:53;96327.38;;;15.58;100.00
79331;BME280;68797;49.782;19.054;2023-08-30T14:53:27;96347.91;;;15.58;100.00
79331;BME280;68797;49.782;19.054;2023-08-30T14:56:19;96336.56;;;15.54;100.00
79331;BME280;68797;49.782;19.054;2023-08-30T14:58:52;96344.16;;;15.75;100.00
79331;BME280;68797;49.782;19.054;2023-08-30T15:02:17;96341.91;;;15.81;100.00
79331;BME280;68797;49.782;19.054;2023-08-30T15:05:27;96317.59;;;15.72;100.00
79331;BME280;68797;49.782;19.054;2023-08-30T15:23:57;96343.56;;;15.96;100.00
79331;BME280;68797;49.782;19.054;2023-08-30T15:28:10;96308.47;;;15.61;100.00
79331;BME280;68797;49.782;19.054;2023-08-30T15:48:41;96361.06;;;15.75;100.00
79331;BME280;68797;49.782;19.054;2023-08-30T15:58:01;96363.53;;;15.78;100.00
79331;BME280;68797;49.782;19.054;2023-08-30T16:16:36;96350.22;;;15.50;100.00
79331;BME280;68797;49.782;19.054;2023-08-30T16:19:23;96353.31;;;15.44;100.00
79331;BME280;68797;49.782;19.054;2023-08-30T16:21:53;96385.00;;;15.50;100.00
79331;BME280;68797;49.782;19.054;2023-08-30T16:24:20;96356.84;;;15.44;100.00
79331;BME280;68797;49.782;19.054;2023-08-30T16:26:49;96395.13;;;15.45;100.00
79331;BME280;68797;49.782;19.054;2023-08-30T16:29:23;96389.47;;;15.49;100.00
79331;BME280;68797;49.782;19.054;2023-08-30T16:31:49;96358.91;;;15.26;100.00
79331;BME280;68797;49.782;19.054;2023-08-30T16:34:19;96386.16;;;15.46;100.00
79331;BME280;68797;49.782;19.054;2023-08-30T16:36:47;96351.19;;;15.22;100.00
79331;BME280;68797;49.782;19.054;2023-08-30T16:39:34;96362.53;;;15.25;100.00
79331;BME280;68797;49.782;19.054;2023-08-30T16:42:04;96393.59;;;15.40;100.00
79331;BME280;68797;49.782;19.054;2023-08-30T16:44:32;96349.66;;;15.18;100.00
79331;BME280;68797;49.782;19.054;2023-08-30T16:47:01;96400.69;;;15.42;100.00
79331;BME280;68797;49.782;19.054;2023-08-30T16:49:29;96400.44;;;15.32;100.00
79331;BME280;68797;49.782;19.054;2023-08-30T16:51:58;96396.63;;;15.22;100.00
79331;BME280;68797;49.782;19.054;2023-08-30T16:54:24;96381.66;;;15.05;100.00
79331;BME280;68797;49.782;19.054;2023-08-30T16:56:58;96414.09;;;15.13;100.00
79331;BME280;68797;49.782;19.054;2023-08-30T16:59:26;96400.53;;;15.16;100.00
79331;BME280;68797;49.782;19.054;2023-08-30T17:01:53;96364.50;;;14.95;100.00
79331;BME280;68797;49.782;19.054;2023-08-30T17:04:38;96404.75;;;15.20;100.00
79331;BME280;68797;49.782;19.054;2023-08-30T17:08:01;96404.63;;;15.22;100.00
79331;BME280;68797;49.782;19.054;2023-08-30T17:16:02;96362.09;;;15.04;100.00
79331;BME280;68797;49.782;19.054;2023-08-30T17:18:45;96382.41;;;15.21;100.00
79331;BME280;68797;49.782;19.054;2023-08-30T17:22:16;96402.50;;;15.27;100.00
79331;BME280;68797;49.782;19.054;2023-08-30T17:25:44;96400.91;;;15.24;100.00
79331;BME280;68797;49.782;19.054;2023-08-30T17:29:02;96394.00;;;15.34;100.00
79331;BME280;68797;49.782;19.054;2023-08-30T17:38:15;96398.41;;;15.35;100.00
79331;BME280;68797;49.782;19.054;2023-08-30T17:41:16;96365.16;;;15.13;100.00
79331;BME280;68797;49.782;19.054;2023-08-30T17:44:08;96398.72;;;15.31;100.00
79331;BME280;68797;49.782;19.054;2023-08-30T17:55:08;96406.25;;;15.24;100.00
79331;BME280;68797;49.782;19.054;2023-08-30T19:31:31;96414.50;;;14.78;100.00
79331;BME280;68797;49.782;19.054;2023-08-30T19:36:04;96449.81;;;14.98;100.00
79331;BME280;68797;49.782;19.054;2023-08-30T19:39:11;96446.28;;;14.97;100.00
79331;BME280;68797;49.782;19.054;2023-08-30T19:45:31;96434.22;;;15.04;100.00
79331;BME280;68797;49.782;19.054;2023-08-30T19:49:05;96435.69;;;15.10;100.00
79331;BME280;68797;49.782;19.054;2023-08-30T19:52:03;96438.63;;;15.05;100.00
79331;BME280;68797;49.782;19.054;2023-08-30T19:54:59;96440.06;;;15.11;100.00
79331;BME280;68797;49.782;19.054;2023-08-30T19:58:13;96417.81;;;14.96;100.00
79331;BME280;68797;49.782;19.054;2023-08-30T20:01:14;96456.38;;;15.06;100.00
79331;BME280;68797;49.782;19.054;2023-08-30T20:03:54;96433.41;;;14.75;100.00
79331;BME280;68797;49.782;19.054;2023-08-30T20:06:47;96462.66;;;14.91;100.00
79331;BME280;68797;49.782;19.054;2023-08-30T20:09:56;96459.13;;;14.91;100.00
79331;BME280;68797;49.782;19.054;2023-08-30T20:12:40;96447.88;;;14.71;100.00
79331;BME280;68797;49.782;19.054;2023-08-30T20:15:28;96469.28;;;14.86;100.00
79331;BME280;68797;49.782;19.054;2023-08-30T20:26:26;96420.22;;;14.58;100.00
79331;BME280;68797;49.782;19.054;2023-08-30T20:29:06;96479.16;;;14.83;100.00
79331;BME280;68797;49.782;19.054;2023-08-30T20:36:42;96478.59;;;14.78;100.00
79331;BME280;68797;49.782;19.054;2023-08-30T20:40:52;96473.91;;;14.82;100.00
79331;BME280;68797;49.782;19.054;2023-08-30T20:48:40;96459.72;;;14.81;100.00
79331;BME280;68797;49.782;19.054;2023-08-30T20:52:04;96472.09;;;14.82;100.00
79331;BME280;68797;49.782;19.054;2023-08-30T20:54:56;96464.94;;;14.69;100.00
79331;BME280;68797;49.782;19.054;2023-08-30T22:13:22;96499.00;;;14.65;100.00
79331;BME280;68797;49.782;19.054;2023-08-30T22:16:01;96515.38;;;14.73;100.00
79331;BME280;68797;49.782;19.054;2023-08-30T22:18:39;96477.97;;;14.59;100.00
79331;BME280;68797;49.782;19.054;2023-08-30T22:21:30;96507.22;;;14.76;100.00
79331;BME280;68797;49.782;19.054;2023-08-30T22:24:05;96491.13;;;14.62;100.00
79331;BME280;68797;49.782;19.054;2023-08-30T22:26:44;96518.75;;;14.77;100.00
79331;BME280;68797;49.782;19.054;2023-08-30T22:29:26;96517.13;;;14.74;100.00
79331;BME280;68797;49.782;19.054;2023-08-30T22:32:10;96516.84;;;14.79;100.00
79331;BME280;68797;49.782;19.054;2023-08-30T22:34:56;96508.06;;;14.77;100.00
79331;BME280;68797;49.782;19.054;2023-08-30T22:40:22;96507.66;;;14.69;100.00
79331;BME280;68797;49.782;19.054;2023-08-30T22:43:04;96480.56;;;14.61;100.00
79331;BME280;68797;49.782;19.054;2023-08-30T22:45:31;96516.44;;;14.71;100.00
79331;BME280;68797;49.782;19.054;2023-08-30T22:48:09;96524.53;;;14.69;100.00
79331;BME280;68797;49.782;19.054;2023-08-30T22:50:42;96519.66;;;14.62;100.00
79331;BME280;68797;49.782;19.054;2023-08-30T22:53:25;96519.94;;;14.57;100.00
79331;BME280;68797;49.782;19.054;2023-08-30T22:56:17;96515.16;;;14.62;100.00
79331;BME280;68797;49.782;19.054;2023-08-30T22:58:55;96511.97;;;14.71;100.00
79331;BME280;68797;49.782;19.054;2023-08-30T23:01:24;96492.28;;;14.58;100.00
79331;BME280;68797;49.782;19.054;2023-08-30T23:03:54;96517.59;;;14.67;100.00
79331;BME280;68797;49.782;19.054;2023-08-30T23:06:56;96500.19;;;14.60;100.00
79331;BME280;68797;49.782;19.054;2023-08-30T23:09:33;96510.63;;;14.64;100.00
79331;BME280;68797;49.782;19.054;2023-08-30T23:12:09;96516.34;;;14.72;100.00
79331;BME280;68797;49.782;19.054;2023-08-30T23:14:44;96514.91;;;14.67;100.00
79331;BME280;68797;49.782;19.054;2023-08-30T23:17:21;96491.88;;;14.50;100.00
79331;BME280;68797;49.782;19.054;2023-08-30T23:20:17;96497.72;;;14.57;100.00
79331;BME280;68797;49.782;19.054;2023-08-30T23:22:47;96481.41;;;14.47;100.00
79331;BME280;68797;49.782;19.054;2023-08-30T23:25:32;96507.16;;;14.62;100.00
79331;BME280;68797;49.782;19.054;2023-08-30T23:28:17;96514.59;;;14.57;100.00
79331;BME280;68797;49.782;19.054;2023-08-30T23:30:52;96488.53;;;14.46;100.00
79331;BME280;68797;49.782;19.054;2023-08-30T23:33:36;96507.44;;;14.58;100.00
79331;BME280;68797;49.782;19.054;2023-08-30T23:36:23;96489.50;;;14.45;100.00
79331;BME280;68797;49.782;19.054;2023-08-30T23:39:00;96517.84;;;14.62;100.00
79331;BME280;68797;49.782;19.054;2023-08-30T23:41:42;96516.91;;;14.63;100.00
79331;BME280;68797;49.782;19.054;2023-08-30T23:44:20;96522.25;;;14.63;100.00
79331;BME280;68797;49.782;19.054;2023-08-30T23:46:59;96507.34;;;14.59;100.00
79331;BME280;68797;49.782;19.054;2023-08-30T23:49:28;96499.72;;;14.53;100.00
79331;BME280;68797;49.782;19.054;2023-08-30T23:55:22;96476.22;;;14.44;100.00
79331;BME280;68797;49.782;19.054;2023-08-30T23:57:56;96510.78;;;14.61;100.00
